Festivo — EAEQ — position and weather

sailwx.info

Track history (hours):
 
Tides and Currents Weather Stations Pressure Air Temp Water Temp Dewpoint Dewpoint Depression Visibility Wind Speed Wind Dir Waves Ship Positions

Festivo

Last reported at 2015-Mar-28 16:07 UTC. Time now 2015-Mar-29 09:22 UTC.
Position N 35°55' W 005°12'.

Length 136 m; draft 4.5 m.

Type: Cargo ship. MMSI: 225410000.

Date/timePositionNaut miles runAvg speedWind from/ knotsBaromVisibWave heightAir tempDewpointWater temp
2015-Mar-28 16:07N 35°55' W 005°12'5 8.8
2015-Mar-28 15:33N 35°54' W 005°18'1 1.0
2015-Mar-28 14:32N 35°54' W 005°19'0 0.0
2015-Mar-28 13:32N 35°54' W 005°19'1 0.5
2015-Mar-28 12:33N 35°54' W 005°19'7 6.7
2015-Mar-28 11:27N 35°59' W 005°12'0 0.0
2015-Mar-26 14:33N 35°59' W 005°12'8 7.9
2015-Mar-26 13:34N 35°54' W 005°19'0 0.0
2015-Mar-26 12:32N 35°54' W 005°19'0 0.0
2015-Mar-26 11:32N 35°54' W 005°19'0 0.0
2015-Mar-26 10:32N 35°54' W 005°19'  
2015-Mar-21 16:33N 35°56' W 005°16'4 3.8
2015-Mar-21 15:33N 35°54' W 005°19'0 0.0
2015-Mar-21 14:33N 35°54' W 005°19'0 0.0
2015-Mar-21 13:33N 35°54' W 005°19'0 0.0
2015-Mar-21 12:33N 35°54' W 005°19'0 0.0
2015-Mar-21 11:33N 35°54' W 005°19'4 4.6
2015-Mar-21 10:33N 35°57' W 005°15'6 0.1
2015-Mar-19 13:20N 36°01' W 005°09'810.1
2015-Mar-19 12:33N 35°56' W 005°17'3 3.1
2015-Mar-19 11:31N 35°54' W 005°19'0 0.0
2015-Mar-19 10:31N 35°54' W 005°19'0 0.0
2015-Mar-19 09:34N 35°54' W 005°19'1 0.8
2015-Mar-19 08:34N 35°54' W 005°19'8 7.8
2015-Mar-19 07:33N 35°59' W 005°11'  
Track history (hours):
 
Tides and Currents Weather Stations Pressure Air Temp Water Temp Dewpoint Dewpoint Depression Visibility Wind Speed Wind Dir Waves Ship Positions

Festivo

Last reported at 2015-Mar-28 16:07 UTC. Time now 2015-Mar-29 09:22 UTC.
Position N 35°55' W 005°12'.

Length 136 m; draft 4.5 m.

Type: Cargo ship. MMSI: 225410000.

Date/timePositionNaut miles runAvg speedWind from/ knotsBaromVisibWave heightAir tempDewpointWater temp
2015-Mar-28 16:07N 35°55' W 005°12'5 8.8
2015-Mar-28 15:33N 35°54' W 005°18'1 1.0
2015-Mar-28 14:32N 35°54' W 005°19'0 0.0
2015-Mar-28 13:32N 35°54' W 005°19'1 0.5
2015-Mar-28 12:33N 35°54' W 005°19'7 6.7
2015-Mar-28 11:27N 35°59' W 005°12'0 0.0
2015-Mar-26 14:33N 35°59' W 005°12'8 7.9
2015-Mar-26 13:34N 35°54' W 005°19'0 0.0
2015-Mar-26 12:32N 35°54' W 005°19'0 0.0
2015-Mar-26 11:32N 35°54' W 005°19'0 0.0
2015-Mar-26 10:32N 35°54' W 005°19'  
2015-Mar-21 16:33N 35°56' W 005°16'4 3.8
2015-Mar-21 15:33N 35°54' W 005°19'0 0.0
2015-Mar-21 14:33N 35°54' W 005°19'0 0.0
2015-Mar-21 13:33N 35°54' W 005°19'0 0.0
2015-Mar-21 12:33N 35°54' W 005°19'0 0.0
2015-Mar-21 11:33N 35°54' W 005°19'4 4.6
2015-Mar-21 10:33N 35°57' W 005°15'6 0.1
2015-Mar-19 13:20N 36°01' W 005°09'810.1
2015-Mar-19 12:33N 35°56' W 005°17'3 3.1
2015-Mar-19 11:31N 35°54' W 005°19'0 0.0
2015-Mar-19 10:31N 35°54' W 005°19'0 0.0
2015-Mar-19 09:34N 35°54' W 005°19'1 0.8
2015-Mar-19 08:34N 35°54' W 005°19'8 7.8
2015-Mar-19 07:33N 35°59' W 005°11'  

Dump ship's entire track history